sensor_id;sensor_type;location;lat;lon;timestamp;temperature;humidity
18339;DHT22;9295;44.484;11.240;2024-02-14T00:01:14;6.60;99.90
18339;DHT22;9295;44.484;11.240;2024-02-14T00:03:43;6.60;99.90
18339;DHT22;9295;44.484;11.240;2024-02-14T00:06:11;6.50;99.90
18339;DHT22;9295;44.484;11.240;2024-02-14T00:08:40;6.50;99.90
18339;DHT22;9295;44.484;11.240;2024-02-14T00:11:09;6.40;99.90
18339;DHT22;9295;44.484;11.240;2024-02-14T00:13:39;6.40;99.90
18339;DHT22;9295;44.484;11.240;2024-02-14T00:16:08;6.30;99.90
18339;DHT22;9295;44.484;11.240;2024-02-14T00:18:37;6.30;99.90
18339;DHT22;9295;44.484;11.240;2024-02-14T00:21:07;6.20;99.90
18339;DHT22;9295;44.484;11.240;2024-02-14T00:23:35;6.20;99.90
18339;DHT22;9295;44.484;11.240;2024-02-14T00:26:04;6.20;99.90
18339;DHT22;9295;44.484;11.240;2024-02-14T00:28:33;6.10;99.90
18339;DHT22;9295;44.484;11.240;2024-02-14T00:31:03;6.20;99.90
18339;DHT22;9295;44.484;11.240;2024-02-14T00:33:52;6.20;99.90
18339;DHT22;9295;44.484;11.240;2024-02-14T00:36:21;6.20;99.90
18339;DHT22;9295;44.484;11.240;2024-02-14T00:38:49;6.20;99.90
18339;DHT22;9295;44.484;11.240;2024-02-14T00:41:18;6.20;99.90
18339;DHT22;9295;44.484;11.240;2024-02-14T00:43:47;6.10;99.90
18339;DHT22;9295;44.484;11.240;2024-02-14T00:46:17;6.10;99.90
18339;DHT22;9295;44.484;11.240;2024-02-14T00:48:46;6.20;99.90
18339;DHT22;9295;44.484;11.240;2024-02-14T00:51:15;6.20;99.90
18339;DHT22;9295;44.484;11.240;2024-02-14T00:53:43;6.20;99.90
18339;DHT22;9295;44.484;11.240;2024-02-14T00:56:12;6.20;99.90
18339;DHT22;9295;44.484;11.240;2024-02-14T00:58:41;6.20;99.90
18339;DHT22;9295;44.484;11.240;2024-02-14T01:01:10;6.20;99.90
18339;DHT22;9295;44.484;11.240;2024-02-14T01:03:41;6.30;99.90
18339;DHT22;9295;44.484;11.240;2024-02-14T01:06:10;6.20;99.90
18339;DHT22;9295;44.484;11.240;2024-02-14T01:08:38;6.30;99.90
18339;DHT22;9295;44.484;11.240;2024-02-14T01:11:09;6.30;99.90
18339;DHT22;9295;44.484;11.240;2024-02-14T01:13:37;6.30;99.90
18339;DHT22;9295;44.484;11.240;2024-02-14T01:16:06;6.20;99.90
18339;DHT22;9295;44.484;11.240;2024-02-14T01:18:35;6.20;99.90
18339;DHT22;9295;44.484;11.240;2024-02-14T01:21:06;6.20;99.90
18339;DHT22;9295;44.484;11.240;2024-02-14T01:23:35;6.20;99.90
18339;DHT22;9295;44.484;11.240;2024-02-14T01:26:04;6.20;99.90
18339;DHT22;9295;44.484;11.240;2024-02-14T01:28:32;6.10;99.90
18339;DHT22;9295;44.484;11.240;2024-02-14T01:31:01;6.00;99.90
18339;DHT22;9295;44.484;11.240;2024-02-14T01:33:30;6.00;99.90
18339;DHT22;9295;44.484;11.240;2024-02-14T01:35:59;6.00;99.90
18339;DHT22;9295;44.484;11.240;2024-02-14T01:38:30;5.90;99.90
18339;DHT22;9295;44.484;11.240;2024-02-14T01:41:01;5.90;99.90
18339;DHT22;9295;44.484;11.240;2024-02-14T01:43:30;5.90;99.90
18339;DHT22;9295;44.484;11.240;2024-02-14T01:46:07;5.80;99.90
18339;DHT22;9295;44.484;11.240;2024-02-14T01:48:48;5.80;99.90
18339;DHT22;9295;44.484;11.240;2024-02-14T01:51:19;5.90;99.90
18339;DHT22;9295;44.484;11.240;2024-02-14T01:53:51;5.80;99.90
18339;DHT22;9295;44.484;11.240;2024-02-14T01:56:20;5.80;99.90
18339;DHT22;9295;44.484;11.240;2024-02-14T01:58:49;5.80;99.90
18339;DHT22;9295;44.484;11.240;2024-02-14T02:01:18;5.90;99.90
18339;DHT22;9295;44.484;11.240;2024-02-14T02:03:47;5.90;99.90
18339;DHT22;9295;44.484;11.240;2024-02-14T02:06:16;6.00;99.90
18339;DHT22;9295;44.484;11.240;2024-02-14T02:08:45;6.00;99.90
18339;DHT22;9295;44.484;11.240;2024-02-14T02:11:16;6.00;99.90
18339;DHT22;9295;44.484;11.240;2024-02-14T02:14:06;5.90;99.90
18339;DHT22;9295;44.484;11.240;2024-02-14T02:16:54;5.90;99.90
18339;DHT22;9295;44.484;11.240;2024-02-14T02:19:40;5.90;99.90
18339;DHT22;9295;44.484;11.240;2024-02-14T02:22:29;5.80;99.90
18339;DHT22;9295;44.484;11.240;2024-02-14T02:25:23;5.80;99.90
18339;DHT22;9295;44.484;11.240;2024-02-14T02:28:09;5.80;99.90
18339;DHT22;9295;44.484;11.240;2024-02-14T02:30:42;5.80;99.90
18339;DHT22;9295;44.484;11.240;2024-02-14T02:33:13;5.80;99.90
18339;DHT22;9295;44.484;11.240;2024-02-14T02:35:42;5.90;99.90
18339;DHT22;9295;44.484;11.240;2024-02-14T02:38:32;5.90;99.90
18339;DHT22;9295;44.484;11.240;2024-02-14T02:41:23;5.90;99.90
18339;DHT22;9295;44.484;11.240;2024-02-14T02:44:11;5.90;99.90
18339;DHT22;9295;44.484;11.240;2024-02-14T02:47:03;5.80;99.90
18339;DHT22;9295;44.484;11.240;2024-02-14T02:49:52;5.90;99.90
18339;DHT22;9295;44.484;11.240;2024-02-14T02:52:27;5.90;99.90
18339;DHT22;9295;44.484;11.240;2024-02-14T02:55:16;5.90;99.90
18339;DHT22;9295;44.484;11.240;2024-02-14T02:57:48;5.90;99.90
18339;DHT22;9295;44.484;11.240;2024-02-14T03:00:18;5.90;99.90
18339;DHT22;9295;44.484;11.240;2024-02-14T03:03:07;5.90;99.90
18339;DHT22;9295;44.484;11.240;2024-02-14T03:05:51;5.90;99.90
18339;DHT22;9295;44.484;11.240;2024-02-14T03:08:36;5.90;99.90
18339;DHT22;9295;44.484;11.240;2024-02-14T03:11:25;5.90;99.90
18339;DHT22;9295;44.484;11.240;2024-02-14T03:14:15;5.90;99.90
18339;DHT22;9295;44.484;11.240;2024-02-14T03:17:04;5.90;99.90
18339;DHT22;9295;44.484;11.240;2024-02-14T03:19:37;5.90;99.90
18339;DHT22;9295;44.484;11.240;2024-02-14T03:22:06;5.90;99.90
18339;DHT22;9295;44.484;11.240;2024-02-14T03:24:36;6.00;99.90
18339;DHT22;9295;44.484;11.240;2024-02-14T03:27:05;5.90;99.90
18339;DHT22;9295;44.484;11.240;2024-02-14T03:29:35;5.90;99.90
18339;DHT22;9295;44.484;11.240;2024-02-14T03:32:06;5.90;99.90
18339;DHT22;9295;44.484;11.240;2024-02-14T03:34:35;5.90;99.90
18339;DHT22;9295;44.484;11.240;2024-02-14T03:37:05;5.80;99.90
18339;DHT22;9295;44.484;11.240;2024-02-14T03:39:34;5.90;99.90
18339;DHT22;9295;44.484;11.240;2024-02-14T03:42:03;5.90;99.90
18339;DHT22;9295;44.484;11.240;2024-02-14T03:44:36;5.90;99.90
18339;DHT22;9295;44.484;11.240;2024-02-14T03:47:05;5.90;99.90
18339;DHT22;9295;44.484;11.240;2024-02-14T03:49:34;5.90;99.90
18339;DHT22;9295;44.484;11.240;2024-02-14T03:52:03;5.90;99.90
18339;DHT22;9295;44.484;11.240;2024-02-14T03:54:37;5.90;99.90
18339;DHT22;9295;44.484;11.240;2024-02-14T03:57:05;5.90;99.90
18339;DHT22;9295;44.484;11.240;2024-02-14T03:59:37;5.90;99.90
18339;DHT22;9295;44.484;11.240;2024-02-14T04:02:07;5.80;99.90
18339;DHT22;9295;44.484;11.240;2024-02-14T04:04:37;5.80;99.90
18339;DHT22;9295;44.484;11.240;2024-02-14T04:07:07;5.80;99.90
18339;DHT22;9295;44.484;11.240;2024-02-14T04:09:37;5.90;99.90
18339;DHT22;9295;44.484;11.240;2024-02-14T04:12:06;5.90;99.90
18339;DHT22;9295;44.484;11.240;2024-02-14T04:14:38;5.90;99.90
18339;DHT22;9295;44.484;11.240;2024-02-14T04:17:07;5.90;99.90
18339;DHT22;9295;44.484;11.240;2024-02-14T04:19:36;5.90;99.90
18339;DHT22;9295;44.484;11.240;2024-02-14T04:22:05;5.90;99.90
18339;DHT22;9295;44.484;11.240;2024-02-14T04:24:34;6.00;99.90
18339;DHT22;9295;44.484;11.240;2024-02-14T04:27:03;5.90;99.90
18339;DHT22;9295;44.484;11.240;2024-02-14T04:29:33;5.90;99.90
18339;DHT22;9295;44.484;11.240;2024-02-14T04:32:04;5.90;99.90
18339;DHT22;9295;44.484;11.240;2024-02-14T04:34:33;5.90;99.90
18339;DHT22;9295;44.484;11.240;2024-02-14T04:37:05;5.90;99.90
18339;DHT22;9295;44.484;11.240;2024-02-14T04:39:37;5.90;99.90
18339;DHT22;9295;44.484;11.240;2024-02-14T04:42:06;5.80;99.90
18339;DHT22;9295;44.484;11.240;2024-02-14T04:44:35;5.80;99.90
18339;DHT22;9295;44.484;11.240;2024-02-14T04:47:05;5.90;99.90
18339;DHT22;9295;44.484;11.240;2024-02-14T04:49:37;5.90;99.90
18339;DHT22;9295;44.484;11.240;2024-02-14T04:52:06;5.90;99.90
18339;DHT22;9295;44.484;11.240;2024-02-14T04:54:35;5.90;99.90
18339;DHT22;9295;44.484;11.240;2024-02-14T04:57:04;5.80;99.90
18339;DHT22;9295;44.484;11.240;2024-02-14T04:59:33;5.80;99.90
18339;DHT22;9295;44.484;11.240;2024-02-14T05:02:03;5.70;99.90
18339;DHT22;9295;44.484;11.240;2024-02-14T05:04:33;5.70;99.90
18339;DHT22;9295;44.484;11.240;2024-02-14T05:07:05;5.70;99.90
18339;DHT22;9295;44.484;11.240;2024-02-14T05:09:35;5.70;99.90
18339;DHT22;9295;44.484;11.240;2024-02-14T05:12:04;5.70;99.90
18339;DHT22;9295;44.484;11.240;2024-02-14T05:14:38;5.60;99.90
18339;DHT22;9295;44.484;11.240;2024-02-14T05:17:08;5.70;99.90
18339;DHT22;9295;44.484;11.240;2024-02-14T05:19:38;5.70;99.90
18339;DHT22;9295;44.484;11.240;2024-02-14T05:22:06;5.70;99.90
18339;DHT22;9295;44.484;11.240;2024-02-14T05:24:36;5.70;99.90
18339;DHT22;9295;44.484;11.240;2024-02-14T05:27:05;5.70;99.90
18339;DHT22;9295;44.484;11.240;2024-02-14T05:29:34;5.60;99.90
18339;DHT22;9295;44.484;11.240;2024-02-14T05:32:04;5.60;99.90
18339;DHT22;9295;44.484;11.240;2024-02-14T05:34:33;5.60;99.90
18339;DHT22;9295;44.484;11.240;2024-02-14T05:37:03;5.50;99.90
18339;DHT22;9295;44.484;11.240;2024-02-14T05:39:33;5.50;99.90
18339;DHT22;9295;44.484;11.240;2024-02-14T05:42:02;5.40;99.90
18339;DHT22;9295;44.484;11.240;2024-02-14T05:44:32;5.40;99.90
18339;DHT22;9295;44.484;11.240;2024-02-14T05:47:01;5.50;99.90
18339;DHT22;9295;44.484;11.240;2024-02-14T05:49:29;5.50;99.90
18339;DHT22;9295;44.484;11.240;2024-02-14T05:51:58;5.50;99.90
18339;DHT22;9295;44.484;11.240;2024-02-14T05:54:28;5.50;99.90
18339;DHT22;9295;44.484;11.240;2024-02-14T05:56:57;5.50;99.90
18339;DHT22;9295;44.484;11.240;2024-02-14T05:59:26;5.50;99.90
18339;DHT22;9295;44.484;11.240;2024-02-14T06:01:55;5.40;99.90
18339;DHT22;9295;44.484;11.240;2024-02-14T06:04:24;5.40;99.90
18339;DHT22;9295;44.484;11.240;2024-02-14T06:06:52;5.40;99.90
18339;DHT22;9295;44.484;11.240;2024-02-14T06:09:21;5.40;99.90
18339;DHT22;9295;44.484;11.240;2024-02-14T06:11:51;5.40;99.90
18339;DHT22;9295;44.484;11.240;2024-02-14T06:14:21;5.40;99.90
18339;DHT22;9295;44.484;11.240;2024-02-14T06:16:50;5.40;99.90
18339;DHT22;9295;44.484;11.240;2024-02-14T06:19:19;5.40;99.90
18339;DHT22;9295;44.484;11.240;2024-02-14T06:21:48;5.40;99.90
18339;DHT22;9295;44.484;11.240;2024-02-14T06:24:18;5.40;99.90
18339;DHT22;9295;44.484;11.240;2024-02-14T06:26:47;5.30;99.90
18339;DHT22;9295;44.484;11.240;2024-02-14T06:29:18;5.30;99.90
18339;DHT22;9295;44.484;11.240;2024-02-14T06:31:48;5.40;99.90
18339;DHT22;9295;44.484;11.240;2024-02-14T06:34:17;5.40;99.90
18339;DHT22;9295;44.484;11.240;2024-02-14T06:36:47;5.40;99.90
18339;DHT22;9295;44.484;11.240;2024-02-14T06:39:19;5.40;99.90
18339;DHT22;9295;44.484;11.240;2024-02-14T06:42:02;5.50;99.90
18339;DHT22;9295;44.484;11.240;2024-02-14T06:44:33;5.60;99.90
18339;DHT22;9295;44.484;11.240;2024-02-14T06:47:03;5.60;99.90
18339;DHT22;9295;44.484;11.240;2024-02-14T06:49:31;5.70;99.90
18339;DHT22;9295;44.484;11.240;2024-02-14T06:52:02;5.70;99.90
18339;DHT22;9295;44.484;11.240;2024-02-14T06:54:31;5.80;99.90
18339;DHT22;9295;44.484;11.240;2024-02-14T06:56:59;5.90;99.90
18339;DHT22;9295;44.484;11.240;2024-02-14T06:59:28;6.00;99.90
18339;DHT22;9295;44.484;11.240;2024-02-14T07:01:58;6.10;99.90
18339;DHT22;9295;44.484;11.240;2024-02-14T07:04:40;6.20;99.90
18339;DHT22;9295;44.484;11.240;2024-02-14T07:07:09;6.40;99.90
18339;DHT22;9295;44.484;11.240;2024-02-14T07:09:39;6.40;99.90
18339;DHT22;9295;44.484;11.240;2024-02-14T07:12:07;6.50;99.90
18339;DHT22;9295;44.484;11.240;2024-02-14T07:14:36;6.80;99.90
18339;DHT22;9295;44.484;11.240;2024-02-14T07:17:07;7.80;99.90
18339;DHT22;9295;44.484;11.240;2024-02-14T07:19:36;9.00;99.90
18339;DHT22;9295;44.484;11.240;2024-02-14T07:22:06;10.20;99.90
18339;DHT22;9295;44.484;11.240;2024-02-14T07:24:36;11.40;99.90
18339;DHT22;9295;44.484;11.240;2024-02-14T07:27:06;12.30;99.90
18339;DHT22;9295;44.484;11.240;2024-02-14T07:29:38;13.20;99.90
18339;DHT22;9295;44.484;11.240;2024-02-14T07:32:08;14.00;99.90
18339;DHT22;9295;44.484;11.240;2024-02-14T07:34:38;14.70;99.90
18339;DHT22;9295;44.484;11.240;2024-02-14T07:37:08;15.20;99.90
18339;DHT22;9295;44.484;11.240;2024-02-14T07:39:37;15.80;99.90
18339;DHT22;9295;44.484;11.240;2024-02-14T07:42:06;16.20;99.90
18339;DHT22;9295;44.484;11.240;2024-02-14T07:44:35;16.40;99.90
18339;DHT22;9295;44.484;11.240;2024-02-14T07:47:05;16.80;99.90
18339;DHT22;9295;44.484;11.240;2024-02-14T07:49:40;17.40;99.90
18339;DHT22;9295;44.484;11.240;2024-02-14T07:52:09;17.40;99.90
18339;DHT22;9295;44.484;11.240;2024-02-14T07:54:38;17.30;99.90
18339;DHT22;9295;44.484;11.240;2024-02-14T07:57:07;18.10;99.90
18339;DHT22;9295;44.484;11.240;2024-02-14T07:59:36;18.70;99.90
18339;DHT22;9295;44.484;11.240;2024-02-14T08:02:05;19.10;99.90
18339;DHT22;9295;44.484;11.240;2024-02-14T08:04:34;19.30;99.90
18339;DHT22;9295;44.484;11.240;2024-02-14T08:07:04;19.10;99.90
18339;DHT22;9295;44.484;11.240;2024-02-14T08:09:33;19.10;99.90
18339;DHT22;9295;44.484;11.240;2024-02-14T08:12:02;18.90;99.90
18339;DHT22;9295;44.484;11.240;2024-02-14T08:14:31;19.30;99.90
18339;DHT22;9295;44.484;11.240;2024-02-14T08:17:00;18.90;99.90
18339;DHT22;9295;44.484;11.240;2024-02-14T08:19:28;18.50;99.90
18339;DHT22;9295;44.484;11.240;2024-02-14T08:21:57;18.80;99.90
18339;DHT22;9295;44.484;11.240;2024-02-14T08:24:29;19.30;99.90
18339;DHT22;9295;44.484;11.240;2024-02-14T08:26:58;19.10;99.90
18339;DHT22;9295;44.484;11.240;2024-02-14T08:29:26;18.80;99.90
18339;DHT22;9295;44.484;11.240;2024-02-14T08:31:55;18.10;99.90
18339;DHT22;9295;44.484;11.240;2024-02-14T08:34:24;17.20;99.90
18339;DHT22;9295;44.484;11.240;2024-02-14T08:36:54;16.40;99.90
18339;DHT22;9295;44.484;11.240;2024-02-14T08:39:23;15.70;99.90
18339;DHT22;9295;44.484;11.240;2024-02-14T08:41:55;15.00;99.90
18339;DHT22;9295;44.484;11.240;2024-02-14T08:44:24;14.70;99.90
18339;DHT22;9295;44.484;11.240;2024-02-14T08:46:54;14.30;99.90
18339;DHT22;9295;44.484;11.240;2024-02-14T08:49:23;14.00;99.90
18339;DHT22;9295;44.484;11.240;2024-02-14T08:51:52;13.80;99.90
18339;DHT22;9295;44.484;11.240;2024-02-14T08:54:23;13.80;99.90
18339;DHT22;9295;44.484;11.240;2024-02-14T08:56:55;13.80;99.90
18339;DHT22;9295;44.484;11.240;2024-02-14T08:59:26;13.90;99.90
18339;DHT22;9295;44.484;11.240;2024-02-14T09:01:55;14.00;99.90
18339;DHT22;9295;44.484;11.240;2024-02-14T09:04:25;14.10;99.90
18339;DHT22;9295;44.484;11.240;2024-02-14T09:06:58;14.30;99.90
18339;DHT22;9295;44.484;11.240;2024-02-14T09:09:27;14.30;99.90
18339;DHT22;9295;44.484;11.240;2024-02-14T09:11:58;14.20;99.90
18339;DHT22;9295;44.484;11.240;2024-02-14T09:14:30;14.20;99.90
18339;DHT22;9295;44.484;11.240;2024-02-14T09:17:00;14.20;99.90
18339;DHT22;9295;44.484;11.240;2024-02-14T09:19:31;14.30;99.90
18339;DHT22;9295;44.484;11.240;2024-02-14T09:22:01;14.30;99.90
18339;DHT22;9295;44.484;11.240;2024-02-14T09:24:34;14.20;99.90
18339;DHT22;9295;44.484;11.240;2024-02-14T09:27:04;14.30;99.90
18339;DHT22;9295;44.484;11.240;2024-02-14T09:29:33;14.30;99.90
18339;DHT22;9295;44.484;11.240;2024-02-14T09:32:05;14.30;99.90
18339;DHT22;9295;44.484;11.240;2024-02-14T09:34:34;14.30;99.90
18339;DHT22;9295;44.484;11.240;2024-02-14T09:37:03;14.20;99.90
18339;DHT22;9295;44.484;11.240;2024-02-14T09:39:34;14.30;99.90
18339;DHT22;9295;44.484;11.240;2024-02-14T09:42:09;14.30;99.90
18339;DHT22;9295;44.484;11.240;2024-02-14T09:44:40;14.30;99.90
18339;DHT22;9295;44.484;11.240;2024-02-14T09:47:09;14.30;99.90
18339;DHT22;9295;44.484;11.240;2024-02-14T09:49:38;14.30;99.90
18339;DHT22;9295;44.484;11.240;2024-02-14T09:52:08;14.40;99.90
18339;DHT22;9295;44.484;11.240;2024-02-14T09:54:40;14.40;99.90
18339;DHT22;9295;44.484;11.240;2024-02-14T09:57:11;14.40;99.90
18339;DHT22;9295;44.484;11.240;2024-02-14T09:59:44;14.40;99.90
18339;DHT22;9295;44.484;11.240;2024-02-14T10:02:14;14.50;99.90
18339;DHT22;9295;44.484;11.240;2024-02-14T10:04:45;14.50;99.90
18339;DHT22;9295;44.484;11.240;2024-02-14T10:07:14;14.40;99.90
18339;DHT22;9295;44.484;11.240;2024-02-14T10:09:43;14.40;99.90
18339;DHT22;9295;44.484;11.240;2024-02-14T10:12:14;14.40;99.90
18339;DHT22;9295;44.484;11.240;2024-02-14T10:14:43;14.40;99.90
18339;DHT22;9295;44.484;11.240;2024-02-14T10:17:17;14.40;99.90
18339;DHT22;9295;44.484;11.240;2024-02-14T10:19:56;14.50;99.90
18339;DHT22;9295;44.484;11.240;2024-02-14T10:22:31;14.50;99.90
18339;DHT22;9295;44.484;11.240;2024-02-14T10:25:02;14.40;99.90
18339;DHT22;9295;44.484;11.240;2024-02-14T10:27:33;14.40;99.90
18339;DHT22;9295;44.484;11.240;2024-02-14T10:30:02;14.40;99.90
18339;DHT22;9295;44.484;11.240;2024-02-14T10:32:32;14.50;99.90
18339;DHT22;9295;44.484;11.240;2024-02-14T10:35:03;14.60;99.90
18339;DHT22;9295;44.484;11.240;2024-02-14T10:37:32;14.60;99.90
18339;DHT22;9295;44.484;11.240;2024-02-14T10:40:01;14.60;99.90
18339;DHT22;9295;44.484;11.240;2024-02-14T10:42:33;14.60;99.90
18339;DHT22;9295;44.484;11.240;2024-02-14T10:45:02;14.60;99.90
18339;DHT22;9295;44.484;11.240;2024-02-14T10:47:35;14.60;99.90
18339;DHT22;9295;44.484;11.240;2024-02-14T10:50:05;14.70;99.90
18339;DHT22;9295;44.484;11.240;2024-02-14T10:52:35;14.70;99.90
18339;DHT22;9295;44.484;11.240;2024-02-14T10:55:05;14.70;99.90
18339;DHT22;9295;44.484;11.240;2024-02-14T10:57:36;14.80;99.90
18339;DHT22;9295;44.484;11.240;2024-02-14T11:00:07;14.80;99.90
18339;DHT22;9295;44.484;11.240;2024-02-14T11:02:38;14.80;99.90
18339;DHT22;9295;44.484;11.240;2024-02-14T11:05:12;14.70;99.90
18339;DHT22;9295;44.484;11.240;2024-02-14T11:07:45;14.70;99.90
18339;DHT22;9295;44.484;11.240;2024-02-14T11:10:16;14.50;99.90
18339;DHT22;9295;44.484;11.240;2024-02-14T11:12:47;14.40;99.90
18339;DHT22;9295;44.484;11.240;2024-02-14T11:15:20;14.40;99.90
18339;DHT22;9295;44.484;11.240;2024-02-14T11:17:50;14.50;99.90
18339;DHT22;9295;44.484;11.240;2024-02-14T11:20:21;14.50;99.90
18339;DHT22;9295;44.484;11.240;2024-02-14T11:22:53;14.30;99.90
18339;DHT22;9295;44.484;11.240;2024-02-14T11:25:33;14.20;99.90
18339;DHT22;9295;44.484;11.240;2024-02-14T11:28:14;14.30;99.90
18339;DHT22;9295;44.484;11.240;2024-02-14T11:30:44;14.30;99.90
18339;DHT22;9295;44.484;11.240;2024-02-14T11:33:17;14.40;99.90
18339;DHT22;9295;44.484;11.240;2024-02-14T11:35:47;14.40;99.90
18339;DHT22;9295;44.484;11.240;2024-02-14T11:38:17;14.50;99.90
18339;DHT22;9295;44.484;11.240;2024-02-14T11:40:46;14.60;99.90
18339;DHT22;9295;44.484;11.240;2024-02-14T11:43:18;14.70;99.90
18339;DHT22;9295;44.484;11.240;2024-02-14T11:45:48;14.80;99.90
18339;DHT22;9295;44.484;11.240;2024-02-14T11:48:18;14.80;99.90
18339;DHT22;9295;44.484;11.240;2024-02-14T11:50:48;14.90;99.90
18339;DHT22;9295;44.484;11.240;2024-02-14T11:53:17;14.90;99.90
18339;DHT22;9295;44.484;11.240;2024-02-14T11:55:46;14.90;99.90
18339;DHT22;9295;44.484;11.240;2024-02-14T11:58:17;14.70;99.90
18339;DHT22;9295;44.484;11.240;2024-02-14T12:00:47;14.80;99.90
18339;DHT22;9295;44.484;11.240;2024-02-14T12:03:17;14.90;99.90
18339;DHT22;9295;44.484;11.240;2024-02-14T12:05:47;14.90;99.90
18339;DHT22;9295;44.484;11.240;2024-02-14T12:08:18;14.90;99.90
18339;DHT22;9295;44.484;11.240;2024-02-14T12:10:48;14.60;99.90
18339;DHT22;9295;44.484;11.240;2024-02-14T12:13:20;14.20;99.90
18339;DHT22;9295;44.484;11.240;2024-02-14T12:15:50;14.00;99.90
18339;DHT22;9295;44.484;11.240;2024-02-14T12:18:20;14.00;99.90
18339;DHT22;9295;44.484;11.240;2024-02-14T12:20:50;14.20;99.90
18339;DHT22;9295;44.484;11.240;2024-02-14T12:23:23;14.40;99.90
18339;DHT22;9295;44.484;11.240;2024-02-14T12:25:54;14.50;99.90
18339;DHT22;9295;44.484;11.240;2024-02-14T12:28:31;14.70;99.90
18339;DHT22;9295;44.484;11.240;2024-02-14T12:31:01;14.70;99.90
18339;DHT22;9295;44.484;11.240;2024-02-14T12:33:30;14.70;99.90
18339;DHT22;9295;44.484;11.240;2024-02-14T12:36:03;14.40;99.90
18339;DHT22;9295;44.484;11.240;2024-02-14T12:38:33;14.30;99.90
18339;DHT22;9295;44.484;11.240;2024-02-14T12:41:01;14.40;99.90
18339;DHT22;9295;44.484;11.240;2024-02-14T12:43:32;14.30;99.90
18339;DHT22;9295;44.484;11.240;2024-02-14T12:46:01;14.40;99.90
18339;DHT22;9295;44.484;11.240;2024-02-14T12:48:31;14.60;99.90
18339;DHT22;9295;44.484;11.240;2024-02-14T12:51:01;14.70;99.90
18339;DHT22;9295;44.484;11.240;2024-02-14T12:53:30;14.80;99.90
18339;DHT22;9295;44.484;11.240;2024-02-14T12:55:59;14.70;99.90
18339;DHT22;9295;44.484;11.240;2024-02-14T12:58:28;14.90;99.90
18339;DHT22;9295;44.484;11.240;2024-02-14T13:00:59;15.00;99.90
18339;DHT22;9295;44.484;11.240;2024-02-14T13:03:28;15.00;99.90
18339;DHT22;9295;44.484;11.240;2024-02-14T13:05:57;14.90;99.90
18339;DHT22;9295;44.484;11.240;2024-02-14T13:08:25;15.00;99.90
18339;DHT22;9295;44.484;11.240;2024-02-14T13:10:54;15.00;99.90
18339;DHT22;9295;44.484;11.240;2024-02-14T13:13:24;15.10;99.90
18339;DHT22;9295;44.484;11.240;2024-02-14T13:15:53;15.20;99.90
18339;DHT22;9295;44.484;11.240;2024-02-14T13:18:23;15.10;99.90
18339;DHT22;9295;44.484;11.240;2024-02-14T13:20:52;15.00;99.90
18339;DHT22;9295;44.484;11.240;2024-02-14T13:23:27;14.90;99.90
18339;DHT22;9295;44.484;11.240;2024-02-14T13:25:56;14.90;99.90
18339;DHT22;9295;44.484;11.240;2024-02-14T13:28:24;14.90;99.90
18339;DHT22;9295;44.484;11.240;2024-02-14T13:30:53;14.90;99.90
18339;DHT22;9295;44.484;11.240;2024-02-14T13:33:24;14.80;99.90
18339;DHT22;9295;44.484;11.240;2024-02-14T13:35:54;14.90;99.90
18339;DHT22;9295;44.484;11.240;2024-02-14T13:38:22;14.90;99.90
18339;DHT22;9295;44.484;11.240;2024-02-14T13:40:51;14.90;99.90
18339;DHT22;9295;44.484;11.240;2024-02-14T13:43:20;15.00;99.90
18339;DHT22;9295;44.484;11.240;2024-02-14T13:45:49;15.00;99.90
18339;DHT22;9295;44.484;11.240;2024-02-14T13:48:17;15.00;99.90
18339;DHT22;9295;44.484;11.240;2024-02-14T13:50:48;15.00;99.90
18339;DHT22;9295;44.484;11.240;2024-02-14T13:53:20;15.10;99.90
18339;DHT22;9295;44.484;11.240;2024-02-14T13:55:50;15.10;99.90
18339;DHT22;9295;44.484;11.240;2024-02-14T13:58:20;15.10;99.90
18339;DHT22;9295;44.484;11.240;2024-02-14T14:00:49;15.30;99.90
18339;DHT22;9295;44.484;11.240;2024-02-14T14:03:18;15.20;99.90
18339;DHT22;9295;44.484;11.240;2024-02-14T14:05:48;15.20;99.90
18339;DHT22;9295;44.484;11.240;2024-02-14T14:08:18;15.20;99.90
18339;DHT22;9295;44.484;11.240;2024-02-14T14:10:47;15.10;99.90
18339;DHT22;9295;44.484;11.240;2024-02-14T14:13:16;15.10;99.90
18339;DHT22;9295;44.484;11.240;2024-02-14T14:15:45;15.10;99.90
18339;DHT22;9295;44.484;11.240;2024-02-14T14:18:14;15.20;99.90
18339;DHT22;9295;44.484;11.240;2024-02-14T14:20:42;15.30;99.90
18339;DHT22;9295;44.484;11.240;2024-02-14T14:23:13;15.40;99.90
18339;DHT22;9295;44.484;11.240;2024-02-14T14:25:42;15.30;99.90
18339;DHT22;9295;44.484;11.240;2024-02-14T14:28:11;14.80;99.90
18339;DHT22;9295;44.484;11.240;2024-02-14T14:30:41;14.40;99.90
18339;DHT22;9295;44.484;11.240;2024-02-14T14:33:11;14.30;99.90
18339;DHT22;9295;44.484;11.240;2024-02-14T14:35:45;14.70;99.90
18339;DHT22;9295;44.484;11.240;2024-02-14T14:38:17;14.90;99.90
18339;DHT22;9295;44.484;11.240;2024-02-14T14:40:46;15.00;99.90
18339;DHT22;9295;44.484;11.240;2024-02-14T14:43:15;15.10;99.90
18339;DHT22;9295;44.484;11.240;2024-02-14T14:45:46;15.20;99.90
18339;DHT22;9295;44.484;11.240;2024-02-14T14:48:17;15.00;99.90
18339;DHT22;9295;44.484;11.240;2024-02-14T14:50:46;14.60;99.90
18339;DHT22;9295;44.484;11.240;2024-02-14T14:53:15;14.60;99.90
18339;DHT22;9295;44.484;11.240;2024-02-14T14:55:52;14.90;99.90
18339;DHT22;9295;44.484;11.240;2024-02-14T14:58:24;15.10;99.90
18339;DHT22;9295;44.484;11.240;2024-02-14T15:00:55;15.30;99.90
18339;DHT22;9295;44.484;11.240;2024-02-14T15:03:26;15.40;99.90
18339;DHT22;9295;44.484;11.240;2024-02-14T15:05:55;15.40;99.90
18339;DHT22;9295;44.484;11.240;2024-02-14T15:08:24;15.30;99.90
18339;DHT22;9295;44.484;11.240;2024-02-14T15:10:56;15.20;99.90
18339;DHT22;9295;44.484;11.240;2024-02-14T15:13:26;15.00;99.90
18339;DHT22;9295;44.484;11.240;2024-02-14T15:15:55;14.90;99.90
18339;DHT22;9295;44.484;11.240;2024-02-14T15:18:25;14.70;99.90
18339;DHT22;9295;44.484;11.240;2024-02-14T15:20:54;14.80;99.90
18339;DHT22;9295;44.484;11.240;2024-02-14T15:23:23;14.70;99.90
18339;DHT22;9295;44.484;11.240;2024-02-14T15:25:52;14.70;99.90
18339;DHT22;9295;44.484;11.240;2024-02-14T15:28:27;14.60;99.90
18339;DHT22;9295;44.484;11.240;2024-02-14T15:30:56;14.40;99.90
18339;DHT22;9295;44.484;11.240;2024-02-14T15:33:42;14.40;99.90
18339;DHT22;9295;44.484;11.240;2024-02-14T15:36:11;14.50;99.90
18339;DHT22;9295;44.484;11.240;2024-02-14T15:38:43;14.60;99.90
18339;DHT22;9295;44.484;11.240;2024-02-14T15:41:12;14.70;99.90
18339;DHT22;9295;44.484;11.240;2024-02-14T15:43:43;14.60;99.90
18339;DHT22;9295;44.484;11.240;2024-02-14T15:46:12;14.20;99.90
18339;DHT22;9295;44.484;11.240;2024-02-14T15:48:42;14.00;99.90
18339;DHT22;9295;44.484;11.240;2024-02-14T15:51:12;13.70;99.90
18339;DHT22;9295;44.484;11.240;2024-02-14T15:53:45;13.60;99.90
18339;DHT22;9295;44.484;11.240;2024-02-14T15:56:14;13.50;99.90
18339;DHT22;9295;44.484;11.240;2024-02-14T15:58:44;13.50;99.90
18339;DHT22;9295;44.484;11.240;2024-02-14T16:01:13;13.50;99.90